Time;durP1;ratioP1;P1;durP2;ratioP2;P2;SDS_P1;SDS_P2;PMS_P1;PMS_P2;Temp;Humidity;BMP_temperature;BMP_pressure;BME280_temperature;BME280_humidity;BME280_pressure;Samples;Min_cycle;Max_cycle;Signal;HPM_P1;HPM_P2
2021/04/17 00:02:14;;;;;;;6.63;5.85;;;5.70;49.50;;;;;;6045867;23;20215;-76
2021/04/17 00:04:41;;;;;;;6.40;5.70;;;5.60;49.60;;;;;;6046321;23;20211;-76
2021/04/17 00:07:07;;;;;;;8.25;6.65;;;5.60;49.90;;;;;;6046406;23;20214;-76
2021/04/17 00:09:34;;;;;;;6.88;6.18;;;5.60;50.20;;;;;;6050537;23;20179;-76
2021/04/17 00:12:04;;;;;;;7.47;6.13;;;5.60;50.20;;;;;;6041592;23;20306;-76
2021/04/17 00:14:35;;;;;;;7.80;6.10;;;5.60;50.30;;;;;;6069745;23;20204;-76
2021/04/17 00:17:02;;;;;;;7.30;6.55;;;5.50;50.70;;;;;;6127415;23;20256;-75
2021/04/17 00:19:28;;;;;;;6.90;6.20;;;5.50;50.90;;;;;;6131641;23;20203;-76
2021/04/17 00:21:55;;;;;;;7.82;7.05;;;5.40;51.00;;;;;;6133580;23;20267;-77
2021/04/17 00:24:21;;;;;;;7.00;6.32;;;5.40;51.00;;;;;;6137046;23;20204;-76
2021/04/17 00:26:48;;;;;;;7.93;7.07;;;5.40;51.40;;;;;;6135869;23;20203;-75
2021/04/17 00:29:14;;;;;;;6.90;6.15;;;5.30;51.60;;;;;;6134422;23;20172;-75
2021/04/17 00:31:42;;;;;;;7.20;6.45;;;5.30;52.10;;;;;;6127965;23;20188;-76
2021/04/17 00:34:08;;;;;;;7.25;6.55;;;5.20;53.00;;;;;;6127862;23;20196;-75
2021/04/17 00:36:35;;;;;;;7.75;6.95;;;5.10;52.70;;;;;;6131984;23;20208;-75
2021/04/17 00:39:03;;;;;;;8.75;7.65;;;5.10;53.20;;;;;;6146932;23;20192;-74
2021/04/17 00:41:29;;;;;;;8.65;7.03;;;5.00;54.50;;;;;;6149173;23;20215;-74
2021/04/17 00:43:56;;;;;;;8.20;7.38;;;5.00;53.90;;;;;;6150356;23;20188;-74
2021/04/17 00:46:23;;;;;;;7.20;6.50;;;4.90;55.00;;;;;;6150193;23;20188;-75
2021/04/17 00:48:51;;;;;;;8.93;7.15;;;4.90;55.20;;;;;;6150640;23;20185;-75
2021/04/17 00:51:17;;;;;;;9.55;6.93;;;4.80;55.20;;;;;;6150536;23;20188;-75
2021/04/17 00:53:44;;;;;;;9.75;7.05;;;4.80;55.20;;;;;;6149885;23;20188;-75
2021/04/17 00:56:12;;;;;;;7.82;7.03;;;4.80;55.20;;;;;;6147144;23;20173;-75
2021/04/17 00:58:40;;;;;;;7.50;6.70;;;4.80;55.20;;;;;;6138704;23;20192;-75
2021/04/17 01:01:08;;;;;;;8.00;7.20;;;4.80;55.20;;;;;;6146300;23;20262;-75
2021/04/17 01:03:42;;;;;;;8.50;7.63;;;4.80;55.90;;;;;;6147797;23;20260;-76
2021/04/17 01:06:16;;;;;;;8.00;7.10;;;4.70;56.10;;;;;;6160562;23;20207;-78
2021/04/17 01:08:50;;;;;;;8.38;7.47;;;4.70;56.40;;;;;;6163693;23;20194;-78
2021/04/17 01:11:23;;;;;;;7.65;6.78;;;4.70;56.40;;;;;;6168419;23;20215;-78
2021/04/17 01:13:52;;;;;;;6.72;6.05;;;4.70;56.70;;;;;;6169925;23;20196;-78
2021/04/17 01:16:19;;;;;;;13.23;7.80;;;4.60;56.90;;;;;;6179540;23;20207;-79
2021/04/17 01:18:46;;;;;;;7.43;6.72;;;4.60;57.50;;;;;;6182001;23;20164;-79
2021/04/17 01:21:15;;;;;;;9.30;8.25;;;4.60;57.60;;;;;;6183371;23;20239;-79
2021/04/17 01:23:47;;;;;;;7.93;7.13;;;4.60;57.70;;;;;;6182653;23;20172;-79
2021/04/17 01:26:17;;;;;;;9.82;8.75;;;4.50;58.00;;;;;;6181498;23;20196;-79
2021/04/17 01:28:47;;;;;;;8.77;7.75;;;4.50;58.10;;;;;;6180324;23;20167;-79
2021/04/17 01:31:15;;;;;;;9.20;8.23;;;4.40;58.40;;;;;;6180166;23;20168;-78
2021/04/17 01:33:45;;;;;;;8.30;7.22;;;4.50;58.60;;;;;;6181103;23;20195;-79
2021/04/17 01:36:14;;;;;;;8.40;7.50;;;4.40;58.70;;;;;;6175753;23;20200;-78
2021/04/17 01:38:45;;;;;;;8.18;7.28;;;4.30;59.30;;;;;;6161761;23;20648;-78
2021/04/17 01:41:16;;;;;;;9.65;8.65;;;4.30;59.40;;;;;;6162374;23;20198;-79
2021/04/17 01:43:47;;;;;;;9.60;8.05;;;4.30;59.90;;;;;;6161618;23;20677;-78
2021/04/17 01:46:17;;;;;;;11.93;8.25;;;4.30;60.90;;;;;;6160495;23;20192;-78
2021/04/17 01:48:44;;;;;;;8.30;6.97;;;4.20;60.60;;;;;;6162991;23;20176;-77
2021/04/17 01:51:12;;;;;;;10.55;7.45;;;4.10;61.50;;;;;;6169684;23;20172;-79
2021/04/17 01:53:42;;;;;;;8.63;7.72;;;4.10;62.00;;;;;;6179450;23;20191;-79
2021/04/17 01:56:10;;;;;;;8.63;7.72;;;4.00;63.50;;;;;;6167257;23;20258;-78
2021/04/17 01:58:40;;;;;;;9.70;7.78;;;4.00;63.50;;;;;;6161844;23;20191;-78
2021/04/17 02:01:07;;;;;;;9.05;7.07;;;3.90;63.40;;;;;;6161074;23;20192;-78
2021/04/17 02:03:34;;;;;;;8.50;7.65;;;3.90;63.40;;;;;;6159937;23;20199;-77
2021/04/17 02:06:01;;;;;;;9.00;7.70;;;3.90;64.50;;;;;;6160597;23;20215;-78
2021/04/17 02:08:28;;;;;;;9.82;8.80;;;3.90;64.40;;;;;;6163475;23;20183;-78
2021/04/17 02:10:54;;;;;;;8.55;7.05;;;3.80;64.80;;;;;;6161405;23;20630;-78
2021/04/17 02:13:21;;;;;;;10.02;8.50;;;3.60;65.40;;;;;;6160517;23;20191;-80
2021/04/17 02:15:49;;;;;;;13.32;8.55;;;3.60;66.50;;;;;;6161395;23;20704;-78
2021/04/17 02:18:21;;;;;;;10.35;8.73;;;3.60;67.50;;;;;;6160181;23;20180;-78
2021/04/17 02:20:53;;;;;;;9.88;8.40;;;3.50;68.40;;;;;;6158473;23;20216;-78
2021/04/17 02:23:22;;;;;;;11.18;8.80;;;3.50;69.30;;;;;;6158683;23;20169;-78
2021/04/17 02:25:49;;;;;;;12.57;9.57;;;3.50;69.80;;;;;;6165665;23;20204;-77
2021/04/17 02:28:16;;;;;;;9.93;8.90;;;3.40;69.90;;;;;;6168518;23;20184;-77
2021/04/17 02:30:42;;;;;;;13.95;9.10;;;3.40;70.20;;;;;;6167758;23;20187;-77
2021/04/17 02:33:09;;;;;;;11.23;9.27;;;3.40;70.90;;;;;;6160649;23;20255;-79
2021/04/17 02:35:36;;;;;;;10.63;9.18;;;3.40;71.10;;;;;;6162310;23;20215;-80
2021/04/17 02:38:02;;;;;;;9.98;8.98;;;3.40;71.60;;;;;;6165959;23;20184;-79
2021/04/17 02:40:29;;;;;;;12.60;9.35;;;3.50;71.00;;;;;;6165708;23;20810;-79
2021/04/17 02:42:55;;;;;;;10.93;9.32;;;3.40;70.80;;;;;;6162178;23;20183;-79
2021/04/17 02:45:22;;;;;;;12.15;8.88;;;3.40;71.20;;;;;;6163965;23;20212;-79
2021/04/17 02:47:48;;;;;;;10.77;8.98;;;3.50;71.20;;;;;;6158931;23;20183;-80
2021/04/17 02:50:16;;;;;;;9.70;8.30;;;3.50;70.50;;;;;;6157725;23;20191;-79
2021/04/17 02:52:42;;;;;;;12.43;8.57;;;3.40;70.60;;;;;;6158464;23;20190;-80
2021/04/17 02:55:10;;;;;;;11.82;8.40;;;3.40;70.50;;;;;;6158651;23;20204;-79
2021/04/17 02:57:36;;;;;;;10.80;9.02;;;3.40;70.70;;;;;;6158773;23;20230;-79
2021/04/17 03:00:06;;;;;;;12.38;9.20;;;3.40;71.00;;;;;;6160523;23;20269;-79
2021/04/17 03:02:32;;;;;;;10.27;8.48;;;3.30;71.00;;;;;;6166531;23;20238;-79
2021/04/17 03:04:59;;;;;;;11.25;9.23;;;3.30;70.80;;;;;;6158913;23;20519;-79
2021/04/17 03:07:26;;;;;;;11.13;9.82;;;3.30;72.20;;;;;;6157750;23;20184;-80
2021/04/17 03:09:53;;;;;;;10.60;9.25;;;3.30;71.60;;;;;;6157204;23;20211;-79
2021/04/17 03:12:19;;;;;;;12.00;10.30;;;3.40;71.10;;;;;;6157978;23;20180;-79
2021/04/17 03:14:46;;;;;;;9.90;8.90;;;3.40;70.60;;;;;;6158466;23;20206;-80
2021/04/17 03:17:14;;;;;;;11.85;9.95;;;3.30;70.70;;;;;;6158682;23;20184;-79
2021/04/17 03:19:41;;;;;;;15.18;10.10;;;3.30;71.40;;;;;;6158791;23;20184;-79
2021/04/17 03:22:07;;;;;;;11.85;9.68;;;3.30;71.60;;;;;;6158486;23;20283;-78
2021/04/17 03:24:36;;;;;;;13.68;10.82;;;3.30;71.60;;;;;;6159578;23;20262;-79
2021/04/17 03:27:03;;;;;;;11.63;10.10;;;3.30;71.60;;;;;;6159906;23;20188;-79
2021/04/17 03:29:30;;;;;;;9.95;8.95;;;3.20;71.50;;;;;;6166355;23;20184;-78
2021/04/17 03:31:56;;;;;;;11.00;9.13;;;3.20;71.50;;;;;;6172374;23;20180;-79
2021/04/17 03:34:23;;;;;;;11.52;10.07;;;3.20;71.50;;;;;;6179745;23;20196;-79
2021/04/17 03:36:49;;;;;;;11.57;9.95;;;3.20;71.50;;;;;;6182816;23;20164;-79
2021/04/17 03:39:16;;;;;;;13.52;9.65;;;3.20;71.50;;;;;;6182240;23;20161;-77
2021/04/17 03:41:43;;;;;;;12.20;10.10;;;3.20;71.50;;;;;;6174105;23;20203;-79
2021/04/17 03:44:10;;;;;;;9.18;8.30;;;3.10;71.40;;;;;;6160309;23;20251;-79
2021/04/17 03:46:36;;;;;;;12.73;9.07;;;3.10;72.30;;;;;;6159911;23;20191;-79
2021/04/17 03:49:03;;;;;;;13.15;10.38;;;3.10;72.10;;;;;;6158423;23;20240;-79
2021/04/17 03:51:30;;;;;;;11.38;8.70;;;3.10;73.00;;;;;;6158024;23;20218;-79
2021/04/17 03:53:59;;;;;;;12.18;10.20;;;3.10;72.70;;;;;;6159919;23;20183;-79
2021/04/17 03:56:26;;;;;;;12.90;10.10;;;3.10;73.10;;;;;;6159504;23;20215;-79
2021/04/17 03:58:53;;;;;;;13.20;10.48;;;3.00;73.30;;;;;;6160758;23;20642;-79
2021/04/17 04:01:20;;;;;;;11.80;10.52;;;3.00;73.40;;;;;;6165779;23;20199;-79
2021/04/17 04:03:46;;;;;;;12.23;9.98;;;3.00;73.70;;;;;;6167745;23;20199;-80
2021/04/17 04:06:13;;;;;;;12.40;10.23;;;3.00;73.90;;;;;;6169945;23;20212;-80
2021/04/17 04:08:39;;;;;;;16.33;11.23;;;2.90;74.50;;;;;;6167982;23;20176;-80
2021/04/17 04:11:06;;;;;;;12.65;10.30;;;2.90;74.80;;;;;;6165528;23;20328;-78
2021/04/17 04:13:32;;;;;;;13.73;10.93;;;2.90;74.90;;;;;;6165781;23;20184;-80
2021/04/17 04:16:00;;;;;;;13.15;10.27;;;2.90;75.40;;;;;;6169808;23;20519;-79
2021/04/17 04:18:26;;;;;;;14.15;10.88;;;2.90;75.40;;;;;;6165014;23;20374;-79
2021/04/17 04:20:53;;;;;;;13.00;10.20;;;2.80;75.40;;;;;;6166818;23;20192;-79
2021/04/17 04:23:19;;;;;;;12.68;10.38;;;2.80;75.40;;;;;;6169068;23;20184;-78
2021/04/17 04:25:45;;;;;;;12.75;11.32;;;2.80;75.40;;;;;;6170419;23;20203;-79
2021/04/17 04:28:12;;;;;;;12.77;10.45;;;2.80;76.10;;;;;;6170628;23;20176;-78
2021/04/17 04:30:39;;;;;;;18.33;11.98;;;2.80;75.90;;;;;;6170659;23;20180;-80
2021/04/17 04:33:06;;;;;;;16.25;12.15;;;2.70;76.40;;;;;;6173433;23;20195;-79
2021/04/17 04:35:33;;;;;;;15.43;10.43;;;2.70;76.60;;;;;;6179455;23;20219;-80
2021/04/17 04:37:59;;;;;;;12.90;10.90;;;2.70;77.10;;;;;;6174688;23;20356;-80
2021/04/17 04:40:26;;;;;;;17.33;12.32;;;2.60;77.50;;;;;;6170618;23;20688;-77
2021/04/17 04:42:52;;;;;;;13.20;10.95;;;2.60;78.10;;;;;;6162341;23;20172;-79
2021/04/17 04:45:19;;;;;;;16.10;11.70;;;2.60;78.10;;;;;;6162977;23;20203;-78
2021/04/17 04:47:45;;;;;;;13.75;11.45;;;2.60;78.60;;;;;;6171642;23;20176;-78
2021/04/17 04:50:14;;;;;;;19.60;11.73;;;2.50;79.40;;;;;;6173621;23;20172;-80
2021/04/17 04:52:40;;;;;;;15.75;11.43;;;2.50;79.30;;;;;;6171651;23;20183;-79
2021/04/17 04:55:08;;;;;;;13.18;10.93;;;2.50;79.30;;;;;;6172295;23;20204;-79
2021/04/17 04:57:35;;;;;;;12.40;10.05;;;2.50;79.30;;;;;;6165623;23;20184;-79
2021/04/17 05:00:01;;;;;;;13.00;11.60;;;2.60;79.40;;;;;;6177415;23;20184;-79
2021/04/17 05:02:28;;;;;;;13.05;11.65;;;2.60;79.40;;;;;;6166243;23;20200;-80
2021/04/17 05:04:54;;;;;;;13.10;10.18;;;2.70;79.50;;;;;;6163858;23;20211;-78
2021/04/17 05:07:22;;;;;;;14.90;10.52;;;2.80;79.60;;;;;;6159155;23;20204;-79
2021/04/17 05:09:48;;;;;;;12.80;11.10;;;2.90;78.80;;;;;;6160145;23;20231;-78
2021/04/17 05:12:14;;;;;;;12.63;11.25;;;3.00;77.60;;;;;;6159542;23;20179;-78
2021/04/17 05:14:41;;;;;;;13.85;11.45;;;3.00;76.80;;;;;;6160111;23;20282;-79
2021/04/17 05:17:07;;;;;;;13.88;10.55;;;3.00;75.80;;;;;;6161668;23;20184;-79
2021/04/17 05:19:34;;;;;;;13.07;10.18;;;3.00;74.40;;;;;;6163266;23;20183;-79
2021/04/17 05:22:00;;;;;;;11.77;9.43;;;3.10;74.50;;;;;;6162270;23;20533;-78
2021/04/17 05:24:28;;;;;;;12.65;10.80;;;3.10;73.80;;;;;;6176259;23;20219;-79
2021/04/17 05:26:54;;;;;;;12.60;9.93;;;3.20;72.60;;;;;;6176649;23;20187;-78
2021/04/17 05:29:20;;;;;;;12.52;11.02;;;3.10;72.20;;;;;;6161913;23;20188;-79
2021/04/17 05:31:47;;;;;;;13.60;9.70;;;3.30;72.30;;;;;;6160516;23;20203;-78
2021/04/17 05:34:13;;;;;;;13.27;10.05;;;3.40;71.60;;;;;;6160869;23;20184;-77
2021/04/17 05:36:40;;;;;;;15.65;10.30;;;3.50;71.70;;;;;;6161307;23;20255;-79
2021/04/17 05:39:06;;;;;;;11.30;9.70;;;3.60;70.90;;;;;;6161056;23;20254;-80
2021/04/17 05:41:34;;;;;;;12.80;9.43;;;3.70;69.70;;;;;;6164175;23;20196;-78
2021/04/17 05:44:10;;;;;;;11.30;9.82;;;3.70;68.30;;;;;;6163050;23;20208;-78
2021/04/17 05:46:36;;;;;;;12.88;10.20;;;3.70;67.60;;;;;;6161309;23;20164;-78
2021/04/17 05:49:03;;;;;;;13.13;9.70;;;3.70;67.30;;;;;;6169518;23;20231;-79
2021/04/17 05:51:31;;;;;;;12.98;10.02;;;3.80;67.30;;;;;;6178092;23;20180;-79
2021/04/17 05:53:58;;;;;;;11.38;9.20;;;3.80;67.10;;;;;;6180421;23;20175;-79
2021/04/17 05:56:24;;;;;;;11.65;9.57;;;3.90;67.20;;;;;;6179863;23;20184;-79
2021/04/17 05:58:52;;;;;;;15.23;9.95;;;4.10;67.10;;;;;;6182428;23;20175;-79
2021/04/17 06:01:18;;;;;;;12.05;9.05;;;4.20;66.10;;;;;;6181928;23;20186;-79
2021/04/17 06:03:45;;;;;;;9.68;8.68;;;4.40;65.40;;;;;;6167146;23;20509;-78
2021/04/17 06:06:11;;;;;;;11.68;9.23;;;4.50;63.90;;;;;;6160900;23;20212;-78
2021/04/17 06:08:38;;;;;;;10.88;9.35;;;4.80;64.20;;;;;;6163893;23;20666;-78
2021/04/17 06:11:05;;;;;;;11.25;10.05;;;4.90;63.20;;;;;;6161555;23;20180;-78
2021/04/17 06:13:32;;;;;;;10.68;9.02;;;5.10;61.20;;;;;;6167120;23;20180;-79
2021/04/17 06:15:59;;;;;;;13.25;9.70;;;5.30;60.10;;;;;;6177130;23;20224;-79
2021/04/17 06:18:26;;;;;;;10.23;9.23;;;5.40;59.10;;;;;;6177407;23;20207;-79
2021/04/17 06:20:53;;;;;;;13.48;10.85;;;5.40;57.80;;;;;;6173555;23;20199;-79
2021/04/17 06:23:20;;;;;;;13.55;9.50;;;5.10;58.40;;;;;;6166510;23;20257;-78
2021/04/17 06:25:46;;;;;;;11.60;10.38;;;5.00;59.80;;;;;;6162639;23;20204;-78
2021/04/17 06:28:13;;;;;;;10.70;9.45;;;5.10;60.00;;;;;;6161325;23;20180;-79
2021/04/17 06:30:39;;;;;;;12.20;9.70;;;5.40;59.00;;;;;;6163085;23;20180;-78
2021/04/17 06:33:09;;;;;;;13.20;11.48;;;5.70;57.10;;;;;;6160974;23;20180;-78
2021/04/17 06:35:36;;;;;;;11.13;9.80;;;5.90;56.40;;;;;;6164008;23;20259;-78
2021/04/17 06:38:03;;;;;;;11.05;9.25;;;6.10;55.50;;;;;;6167390;23;20261;-77
2021/04/17 06:40:29;;;;;;;12.68;10.05;;;6.30;53.80;;;;;;6172385;23;20208;-78
2021/04/17 06:42:59;;;;;;;10.43;8.90;;;6.40;52.90;;;;;;6174068;23;20183;-78
2021/04/17 06:45:26;;;;;;;9.57;8.55;;;6.50;52.80;;;;;;6172956;23;20206;-78
2021/04/17 06:47:55;;;;;;;10.77;9.57;;;6.50;52.70;;;;;;6174297;23;20179;-77
2021/04/17 06:50:23;;;;;;;10.52;8.50;;;6.60;52.00;;;;;;6173539;23;20644;-78
2021/04/17 06:52:52;;;;;;;10.15;9.02;;;6.80;51.20;;;;;;6170650;23;20191;-79
2021/04/17 06:55:19;;;;;;;10.10;9.00;;;7.10;50.50;;;;;;6173755;23;20522;-78
2021/04/17 06:57:45;;;;;;;17.08;9.25;;;7.30;49.10;;;;;;6168998;23;20179;-79
2021/04/17 07:00:13;;;;;;;9.98;8.68;;;7.30;47.90;;;;;;6165730;23;20184;-80
2021/04/17 07:02:41;;;;;;;10.07;8.60;;;7.70;48.20;;;;;;6173548;23;20199;-79
2021/04/17 07:05:09;;;;;;;10.57;8.82;;;8.10;47.10;;;;;;6175024;23;20230;-79
2021/04/17 07:07:36;;;;;;;9.35;8.43;;;8.30;45.80;;;;;;6175554;23;20207;-78
2021/04/17 07:10:04;;;;;;;13.88;9.95;;;8.30;45.60;;;;;;6177281;23;20210;-79
2021/04/17 07:12:31;;;;;;;10.60;8.90;;;8.00;46.00;;;;;;6168750;23;20187;-77
2021/04/17 07:14:57;;;;;;;10.85;8.43;;;8.20;43.90;;;;;;6178199;23;20330;-79
2021/04/17 07:17:24;;;;;;;9.25;8.15;;;8.10;43.90;;;;;;6173370;23;20229;-80
2021/04/17 07:19:53;;;;;;;9.98;7.80;;;8.60;42.50;;;;;;6166935;23;20446;-79
2021/04/17 07:22:22;;;;;;;10.05;8.50;;;8.90;41.00;;;;;;6170011;23;20199;-79
2021/04/17 07:24:52;;;;;;;8.80;7.90;;;9.30;40.00;;;;;;6163033;23;20196;-80
2021/04/17 07:27:35;;;;;;;9.15;7.78;;;9.50;40.10;;;;;;6160990;23;20176;-79
2021/04/17 07:30:07;;;;;;;9.20;7.90;;;9.30;39.50;;;;;;6159936;23;20172;-79
2021/04/17 07:32:34;;;;;;;7.43;6.70;;;9.60;38.30;;;;;;6158751;23;20160;-78
2021/04/17 07:35:06;;;;;;;6.90;6.00;;;9.70;37.30;;;;;;6161286;23;20690;-80
2021/04/17 07:37:33;;;;;;;9.10;6.50;;;9.30;37.30;;;;;;6161057;23;20207;-79
2021/04/17 07:40:16;;;;;;;6.75;6.05;;;8.60;39.30;;;;;;6162979;23;20258;-79
2021/04/17 07:42:44;;;;;;;7.95;6.63;;;7.90;39.60;;;;;;6162483;23;20224;-78
2021/04/17 07:45:19;;;;;;;8.73;6.80;;;7.70;40.90;;;;;;6161981;23;20200;-78
2021/04/17 07:47:46;;;;;;;8.05;6.55;;;8.10;40.40;;;;;;6166745;23;20167;-80
2021/04/17 07:50:13;;;;;;;8.52;7.32;;;8.10;41.30;;;;;;6168249;23;20485;-79
2021/04/17 07:52:40;;;;;;;7.40;6.13;;;8.40;40.00;;;;;;6167373;23;20211;-78
2021/04/17 07:55:09;;;;;;;8.10;6.63;;;8.40;39.10;;;;;;6165579;23;20223;-79
2021/04/17 07:57:38;;;;;;;11.43;6.20;;;8.50;38.20;;;;;;6164339;23;20267;-79
2021/04/17 08:00:08;;;;;;;7.60;5.95;;;8.30;39.00;;;;;;6164038;23;20184;-79
2021/04/17 08:02:35;;;;;;;6.03;5.35;;;8.60;37.70;;;;;;6173491;23;20191;-80
2021/04/17 08:05:03;;;;;;;6.97;5.88;;;8.70;36.50;;;;;;6180671;23;20196;-78
2021/04/17 08:07:30;;;;;;;5.30;4.82;;;8.50;37.10;;;;;;6171699;23;20183;-80
2021/04/17 08:09:59;;;;;;;5.97;5.35;;;8.80;36.90;;;;;;6172946;23;20184;-82
2021/04/17 08:12:26;;;;;;;7.00;5.95;;;8.90;36.30;;;;;;6176057;23;20233;-80
2021/04/17 08:14:53;;;;;;;5.88;5.20;;;9.30;34.90;;;;;;6181578;23;20200;-78
2021/04/17 08:17:21;;;;;;;5.88;5.20;;;8.90;35.10;;;;;;6182756;23;20180;-78
2021/04/17 08:19:48;;;;;;;6.65;6.05;;;8.90;36.20;;;;;;6182647;23;20172;-79
2021/04/17 08:22:15;;;;;;;7.60;5.70;;;9.10;34.90;;;;;;6180949;23;20203;-79
2021/04/17 08:24:42;;;;;;;6.55;5.55;;;8.90;35.20;;;;;;6177746;23;20203;-79
2021/04/17 08:27:10;;;;;;;6.20;5.55;;;9.10;34.70;;;;;;6171904;23;20188;-80
2021/04/17 08:29:49;;;;;;;9.80;5.60;;;9.10;34.50;;;;;;6172326;23;20184;-82
2021/04/17 08:32:30;;;;;;;5.43;4.93;;;9.50;33.40;;;;;;6168173;23;20168;-82
2021/04/17 08:35:09;;;;;;;8.55;6.45;;;9.90;32.70;;;;;;6173516;23;20196;-82
2021/04/17 08:38:02;;;;;;;7.15;6.45;;;10.00;30.70;;;;;;6178032;23;20152;-82
2021/04/17 08:40:45;;;;;;;8.25;6.35;;;10.10;31.00;;;;;;6172408;23;20160;-80
2021/04/17 08:43:30;;;;;;;5.97;5.38;;;10.30;30.10;;;;;;6165541;23;20199;-83
2021/04/17 08:46:07;;;;;;;6.40;5.80;;;10.90;30.30;;;;;;6169162;23;20266;-79
2021/04/17 08:48:51;;;;;;;6.80;6.20;;;11.30;30.40;;;;;;6169532;23;20180;-79
2021/04/17 08:51:29;;;;;;;6.72;6.03;;;10.90;30.30;;;;;;6171352;23;20556;-84
2021/04/17 08:54:22;;;;;;;7.88;6.40;;;10.90;30.30;;;;;;6168519;23;20175;-79
2021/04/17 08:56:58;;;;;;;8.32;6.05;;;10.40;30.00;;;;;;6169165;23;20172;-82
2021/04/17 08:59:28;;;;;;;6.68;6.03;;;10.90;30.30;;;;;;6170820;23;20186;-81
2021/04/17 09:01:58;;;;;;;6.10;5.50;;;10.90;30.30;;;;;;6170959;23;20188;-79
2021/04/17 09:04:26;;;;;;;6.07;5.57;;;11.40;29.00;;;;;;6121404;23;20273;-80
2021/04/17 09:06:54;;;;;;;6.18;5.38;;;11.10;30.00;;;;;;6087460;23;20177;-81
2021/04/17 09:09:32;;;;;;;6.90;5.72;;;10.70;30.10;;;;;;6079204;23;20186;-80
2021/04/17 09:12:22;;;;;;;6.15;5.55;;;10.70;30.10;;;;;;6082408;23;20166;-81
2021/04/17 09:15:03;;;;;;;6.30;5.28;;;10.60;30.00;;;;;;6087602;23;20185;-80
2021/04/17 09:17:49;;;;;;;5.72;4.95;;;10.70;30.10;;;;;;6092336;23;20170;-80
2021/04/17 09:20:38;;;;;;;6.18;5.55;;;10.80;29.50;;;;;;6081551;23;20210;-80
2021/04/17 09:23:05;;;;;;;5.78;5.20;;;10.60;30.00;;;;;;6082661;23;20206;-82
2021/04/17 09:25:42;;;;;;;7.45;6.07;;;10.80;30.20;;;;;;6088378;23;20265;-79
2021/04/17 09:28:09;;;;;;;5.72;5.13;;;11.00;30.00;;;;;;6089459;23;20170;-85
2021/04/17 09:30:36;;;;;;;6.25;5.28;;;10.50;30.00;;;;;;6090566;23;20186;-83
2021/04/17 09:33:05;;;;;;;5.90;5.28;;;10.00;30.50;;;;;;6089919;23;20226;-85
2021/04/17 09:35:34;;;;;;;6.22;5.00;;;10.30;30.40;;;;;;6089910;23;20201;-80
2021/04/17 09:38:13;;;;;;;5.93;5.43;;;10.60;30.70;;;;;;6087325;23;20186;-81
2021/04/17 09:40:43;;;;;;;5.60;5.10;;;10.80;29.20;;;;;;6086633;23;20178;-83
2021/04/17 09:43:26;;;;;;;9.43;4.97;;;10.70;30.10;;;;;;6086237;23;20167;-80
2021/04/17 09:45:54;;;;;;;6.72;4.82;;;10.70;28.50;;;;;;6086750;23;20208;-79
2021/04/17 09:48:23;;;;;;;6.60;4.88;;;10.70;28.50;;;;;;6084205;23;20189;-80
2021/04/17 09:50:55;;;;;;;6.20;5.68;;;10.60;29.10;;;;;;6083849;23;20177;-81
2021/04/17 09:53:28;;;;;;;5.82;5.15;;;10.60;28.80;;;;;;6084290;23;20562;-80
2021/04/17 09:55:57;;;;;;;6.32;4.93;;;11.00;28.30;;;;;;6078428;23;20218;-80
2021/04/17 09:58:36;;;;;;;4.55;4.15;;;11.40;27.00;;;;;;6083559;23;20193;-81
2021/04/17 10:01:10;;;;;;;5.68;4.95;;;11.30;25.80;;;;;;6086296;23;20197;-81
2021/04/17 10:03:39;;;;;;;5.15;4.65;;;11.80;25.60;;;;;;6089213;23;20225;-81
2021/04/17 10:06:26;;;;;;;6.22;5.13;;;12.10;25.80;;;;;;6089425;23;20676;-82
2021/04/17 10:08:53;;;;;;;7.03;4.43;;;12.30;24.40;;;;;;6085200;23;20169;-82
2021/04/17 10:11:23;;;;;;;5.00;4.60;;;12.20;23.50;;;;;;6089450;23;20173;-81
2021/04/17 10:13:50;;;;;;;6.07;4.13;;;12.60;23.60;;;;;;6089708;23;20186;-80
2021/04/17 10:16:24;;;;;;;6.90;4.82;;;12.90;23.80;;;;;;6091346;23;20720;-81
2021/04/17 10:18:52;;;;;;;4.88;4.38;;;13.30;23.20;;;;;;6089420;23;20178;-78
2021/04/17 10:21:27;;;;;;;7.90;4.60;;;12.90;23.30;;;;;;6092264;23;20394;-80
2021/04/17 10:24:19;;;;;;;5.38;4.45;;;12.80;23.80;;;;;;6093761;23;20166;-79
2021/04/17 10:27:05;;;;;;;4.53;4.10;;;11.60;24.70;;;;;;6073846;23;20265;-80
2021/04/17 10:29:38;;;;;;;4.93;4.43;;;11.80;24.40;;;;;;6093735;23;20185;-79
2021/04/17 10:32:07;;;;;;;5.15;4.60;;;12.20;23.90;;;;;;6091814;23;20173;-78
2021/04/17 10:34:35;;;;;;;5.13;4.63;;;12.60;23.60;;;;;;6092962;23;20202;-79
2021/04/17 10:37:04;;;;;;;7.03;4.28;;;12.30;23.90;;;;;;6091875;23;20173;-79
2021/04/17 10:39:30;;;;;;;5.90;4.72;;;12.70;23.60;;;;;;6090041;23;20182;-79
2021/04/17 10:42:06;;;;;;;6.20;4.60;;;12.90;23.80;;;;;;6089633;23;20212;-81
2021/04/17 10:44:33;;;;;;;6.40;4.72;;;13.00;23.80;;;;;;6086747;23;20198;-80
2021/04/17 10:47:01;;;;;;;7.22;4.78;;;12.70;23.60;;;;;;6087878;23;20205;-80
2021/04/17 10:49:33;;;;;;;5.55;5.05;;;12.50;24.00;;;;;;6091010;23;20309;-80
2021/04/17 10:52:03;;;;;;;7.18;4.45;;;12.60;23.60;;;;;;6089270;23;20481;-79
2021/04/17 10:54:29;;;;;;;6.05;4.15;;;12.80;23.40;;;;;;6087560;23;20205;-81
2021/04/17 10:56:58;;;;;;;8.40;4.50;;;12.70;21.70;;;;;;6077412;23;20178;-80
2021/04/17 10:59:25;;;;;;;4.90;4.50;;;12.20;23.30;;;;;;6078339;23;20178;-79
2021/04/17 11:01:52;;;;;;;5.97;4.97;;;12.50;23.50;;;;;;6076640;23;20719;-80
2021/04/17 11:04:18;;;;;;;4.78;4.38;;;12.80;23.70;;;;;;6082278;23;20209;-81
2021/04/17 11:06:48;;;;;;;5.07;4.57;;;12.80;22.90;;;;;;6091704;23;20166;-82
2021/04/17 11:09:17;;;;;;;5.35;4.60;;;12.90;21.90;;;;;;6093799;23;20162;-81
2021/04/17 11:11:54;;;;;;;5.07;4.35;;;12.40;22.20;;;;;;6094657;23;20162;-81
2021/04/17 11:14:22;;;;;;;5.85;4.60;;;12.80;21.20;;;;;;6096098;23;20189;-81
2021/04/17 11:16:51;;;;;;;4.97;4.20;;;13.50;20.60;;;;;;6096168;23;20178;-81
2021/04/17 11:19:25;;;;;;;5.20;4.70;;;13.80;19.40;;;;;;6095219;23;20180;-80
2021/04/17 11:22:06;;;;;;;4.32;3.75;;;13.70;19.40;;;;;;6089656;23;20204;-81
2021/04/17 11:24:33;;;;;;;4.38;3.97;;;13.60;20.00;;;;;;6092855;23;20194;-81
2021/04/17 11:27:00;;;;;;;7.07;4.97;;;13.80;20.10;;;;;;6085720;23;20190;-81
2021/04/17 11:29:26;;;;;;;5.65;4.35;;;13.60;19.90;;;;;;6093468;23;20190;-80
2021/04/17 11:31:53;;;;;;;5.20;4.70;;;13.40;20.70;;;;;;6090463;23;20170;-81
2021/04/17 11:34:19;;;;;;;5.35;3.95;;;12.50;22.20;;;;;;6091054;23;20209;-82
2021/04/17 11:36:46;;;;;;;5.55;4.40;;;12.90;21.70;;;;;;6092503;23;20186;-81
2021/04/17 11:39:13;;;;;;;5.50;4.75;;;13.10;20.80;;;;;;6094916;23;20170;-82
2021/04/17 11:41:41;;;;;;;8.80;5.65;;;13.00;21.10;;;;;;6094724;23;20190;-83
2021/04/17 11:44:07;;;;;;;5.38;4.30;;;13.40;20.50;;;;;;6094519;23;20162;-81
2021/04/17 11:46:35;;;;;;;4.50;4.10;;;13.40;20.20;;;;;;6095810;23;20198;-80
2021/04/17 11:49:03;;;;;;;4.32;3.92;;;13.20;21.00;;;;;;6095593;23;20166;-79
2021/04/17 11:51:29;;;;;;;4.20;3.80;;;13.00;21.00;;;;;;6094526;23;20182;-81
2021/04/17 11:53:56;;;;;;;5.05;4.10;;;12.60;20.40;;;;;;6094600;23;20176;-81
2021/04/17 11:56:23;;;;;;;4.10;3.70;;;12.50;20.70;;;;;;6095511;23;20189;-80
2021/04/17 11:58:51;;;;;;;8.40;4.10;;;12.90;19.90;;;;;;6095447;23;20182;-78
2021/04/17 12:01:19;;;;;;;6.18;4.38;;;12.50;20.50;;;;;;6094653;23;20201;-81
2021/04/17 12:03:46;;;;;;;4.07;3.78;;;12.30;21.00;;;;;;6093519;23;20173;-82
2021/04/17 12:06:13;;;;;;;5.75;4.35;;;12.50;20.70;;;;;;6092268;23;20459;-80
2021/04/17 12:08:39;;;;;;;4.65;4.10;;;12.80;20.00;;;;;;6089527;23;20182;-80
2021/04/17 12:11:06;;;;;;;4.43;4.03;;;12.40;20.40;;;;;;6089877;23;20199;-79
2021/04/17 12:13:33;;;;;;;4.20;3.80;;;12.70;20.30;;;;;;6094043;23;20177;-78
2021/04/17 12:16:00;;;;;;;4.63;4.20;;;13.10;19.80;;;;;;6091093;23;20542;-82
2021/04/17 12:18:27;;;;;;;4.90;4.20;;;12.80;20.00;;;;;;6093225;23;20170;-78
2021/04/17 12:20:53;;;;;;;4.65;3.90;;;13.00;19.50;;;;;;6093958;23;20170;-78
2021/04/17 12:23:20;;;;;;;6.05;3.90;;;13.40;18.90;;;;;;6091211;23;20182;-80
2021/04/17 12:25:46;;;;;;;4.43;4.03;;;13.40;18.60;;;;;;6089055;23;20206;-80
2021/04/17 12:28:13;;;;;;;4.10;3.70;;;13.50;18.30;;;;;;6089614;23;20186;-81
2021/04/17 12:30:39;;;;;;;4.00;3.58;;;13.10;18.70;;;;;;6090511;23;20193;-80
2021/04/17 12:33:08;;;;;;;7.05;3.85;;;13.60;18.20;;;;;;6095421;23;20205;-81
2021/04/17 12:35:34;;;;;;;4.90;3.67;;;13.60;18.00;;;;;;6094310;23;20190;-80
2021/04/17 12:38:01;;;;;;;4.65;3.80;;;13.60;18.40;;;;;;6094398;23;20170;-80
2021/04/17 12:40:28;;;;;;;6.97;3.90;;;14.00;17.70;;;;;;6095014;23;20174;-80
2021/04/17 12:42:54;;;;;;;5.45;3.72;;;14.60;16.80;;;;;;6093587;23;20226;-80
2021/04/17 12:45:21;;;;;;;4.43;4.03;;;15.00;17.00;;;;;;6094099;23;20194;-80
2021/04/17 12:47:48;;;;;;;6.03;4.18;;;15.00;16.40;;;;;;6094655;23;20181;-81
2021/04/17 12:50:15;;;;;;;5.85;3.90;;;14.80;16.10;;;;;;6095291;23;20178;-80
2021/04/17 12:52:42;;;;;;;6.60;4.10;;;15.30;15.50;;;;;;6096058;23;20186;-80
2021/04/17 12:55:09;;;;;;;4.68;3.95;;;14.70;16.80;;;;;;6096220;23;20409;-81
2021/04/17 12:57:36;;;;;;;3.75;3.42;;;14.60;16.80;;;;;;6095895;23;20189;-80